Capitol Logistics 2541


KIAD
Washington Dulles International Airport
Dulles, Virginia, US
KMEM
Memphis International Airport
Memphis, Tennessee, US

Activity Log

Date Flight Route Aircraft Duration
12/06/2019 CPX2541 RNLDI4 OTTTO Q80 FAREV BWG BLUZZ2 B763 2h 14m

Route Details

Aircraft Information
Primary: Boeing 767-300BDSF
Backup: Boeing 757-200SF
Date Restrictions
Between:Nov 16, 2019
Dec 31, 2019
Route Data
Distance: 644nm
Sched. Duration: 1h 38m
Avg. Duration: 2h 14m (+76m)
Times Flown: 1
Recm'd Route: RNLDI4 OTTTO Q80 FAREV BWG BLUZZ2
Planned Altitude: 36,000ft
Origin Wx: KIAD 222052Z 20010KT 10SM CLR 12/M14 A3025 RMK AO2 SLP246 T01221139 56026
Dest. Wx: KMEM 222054Z 18006KT 10SM SCT200 11/M07 A3035 RMK AO2 SLP279 T01061067 56035
Notes: OPERATED FOR FEDEX

Financial History
Total Freight: 86,723lbs
Average Load: 86,723lbs/flt
Fuel Used: 22,222lbs
Avg. Fuel Used: 22,222lbs/flt
Fuel Expense: $28,666
Avg. Fuel Expense: $28,666
Avg. Fuel Cost: $1.29/lbs
Total Gross Income: $0
Pilot Pay: $229
Total Expenses: $52
Total Revenue: $-29,211
Average Revenue: $0.00